sensor_id;sensor_type;location;lat;lon;timestamp;P1;durP1;ratioP1;P2;durP2;ratioP2
83022;SDS011;72838;51.820;4.260;2023-10-13T00:01:58;27.90;;;11.38;;
83022;SDS011;72838;51.820;4.260;2023-10-13T00:04:26;25.40;;;11.30;;
83022;SDS011;72838;51.820;4.260;2023-10-13T00:06:57;25.13;;;11.32;;
83022;SDS011;72838;51.820;4.260;2023-10-13T00:09:23;27.98;;;12.15;;
83022;SDS011;72838;51.820;4.260;2023-10-13T00:11:57;26.20;;;10.35;;
83022;SDS011;72838;51.820;4.260;2023-10-13T00:14:23;32.67;;;10.63;;
83022;SDS011;72838;51.820;4.260;2023-10-13T00:16:57;28.38;;;10.00;;
83022;SDS011;72838;51.820;4.260;2023-10-13T00:19:45;25.00;;;9.48;;
83022;SDS011;72838;51.820;4.260;2023-10-13T00:22:12;22.80;;;9.43;;
83022;SDS011;72838;51.820;4.260;2023-10-13T00:24:44;23.90;;;8.65;;
83022;SDS011;72838;51.820;4.260;2023-10-13T00:27:13;19.45;;;8.45;;
83022;SDS011;72838;51.820;4.260;2023-10-13T00:29:52;21.05;;;9.45;;
83022;SDS011;72838;51.820;4.260;2023-10-13T00:32:38;22.52;;;8.43;;
83022;SDS011;72838;51.820;4.260;2023-10-13T00:35:05;28.00;;;8.88;;
83022;SDS011;72838;51.820;4.260;2023-10-13T00:37:50;18.60;;;7.90;;
83022;SDS011;72838;51.820;4.260;2023-10-13T00:40:23;17.75;;;7.43;;
83022;SDS011;72838;51.820;4.260;2023-10-13T00:42:54;17.85;;;8.35;;
83022;SDS011;72838;51.820;4.260;2023-10-13T00:45:46;20.65;;;8.82;;
83022;SDS011;72838;51.820;4.260;2023-10-13T00:48:35;20.95;;;8.68;;
83022;SDS011;72838;51.820;4.260;2023-10-13T00:51:08;19.90;;;7.97;;
83022;SDS011;72838;51.820;4.260;2023-10-13T00:53:53;21.17;;;8.43;;
83022;SDS011;72838;51.820;4.260;2023-10-13T00:56:19;20.30;;;8.18;;
83022;SDS011;72838;51.820;4.260;2023-10-13T00:58:47;22.95;;;8.20;;
83022;SDS011;72838;51.820;4.260;2023-10-13T01:01:15;21.55;;;7.93;;
83022;SDS011;72838;51.820;4.260;2023-10-13T01:03:46;20.20;;;7.60;;
83022;SDS011;72838;51.820;4.260;2023-10-13T01:06:14;15.40;;;8.02;;
83022;SDS011;72838;51.820;4.260;2023-10-13T01:08:41;17.08;;;7.63;;
83022;SDS011;72838;51.820;4.260;2023-10-13T01:11:09;18.83;;;6.63;;
83022;SDS011;72838;51.820;4.260;2023-10-13T01:13:35;20.52;;;6.65;;
83022;SDS011;72838;51.820;4.260;2023-10-13T01:16:06;15.27;;;6.43;;
83022;SDS011;72838;51.820;4.260;2023-10-13T01:18:32;22.05;;;6.47;;
83022;SDS011;72838;51.820;4.260;2023-10-13T01:21:05;16.52;;;7.00;;
83022;SDS011;72838;51.820;4.260;2023-10-13T01:23:31;14.65;;;6.40;;
83022;SDS011;72838;51.820;4.260;2023-10-13T01:26:03;14.25;;;5.88;;
83022;SDS011;72838;51.820;4.260;2023-10-13T01:28:30;19.98;;;7.35;;
83022;SDS011;72838;51.820;4.260;2023-10-13T01:31:09;14.45;;;7.03;;
83022;SDS011;72838;51.820;4.260;2023-10-13T01:33:49;19.55;;;7.65;;
83022;SDS011;72838;51.820;4.260;2023-10-13T01:36:19;15.02;;;7.18;;
83022;SDS011;72838;51.820;4.260;2023-10-13T01:38:44;15.27;;;7.10;;
83022;SDS011;72838;51.820;4.260;2023-10-13T01:41:11;18.13;;;6.68;;
83022;SDS011;72838;51.820;4.260;2023-10-13T01:43:37;14.23;;;5.90;;
83022;SDS011;72838;51.820;4.260;2023-10-13T01:46:03;13.55;;;6.43;;
83022;SDS011;72838;51.820;4.260;2023-10-13T01:48:28;12.10;;;5.35;;
83022;SDS011;72838;51.820;4.260;2023-10-13T01:50:57;11.90;;;5.50;;
83022;SDS011;72838;51.820;4.260;2023-10-13T01:53:25;14.77;;;6.07;;
83022;SDS011;72838;51.820;4.260;2023-10-13T01:55:54;10.77;;;5.25;;
83022;SDS011;72838;51.820;4.260;2023-10-13T01:58:22;14.38;;;5.97;;
83022;SDS011;72838;51.820;4.260;2023-10-13T02:00:51;16.13;;;5.22;;
83022;SDS011;72838;51.820;4.260;2023-10-13T02:03:16;13.75;;;5.72;;
83022;SDS011;72838;51.820;4.260;2023-10-13T02:05:45;13.70;;;5.65;;
83022;SDS011;72838;51.820;4.260;2023-10-13T02:08:13;16.25;;;5.22;;
83022;SDS011;72838;51.820;4.260;2023-10-13T02:10:58;12.23;;;4.57;;
83022;SDS011;72838;51.820;4.260;2023-10-13T02:13:27;17.05;;;6.20;;
83022;SDS011;72838;51.820;4.260;2023-10-13T02:15:55;16.63;;;4.75;;
83022;SDS011;72838;51.820;4.260;2023-10-13T02:18:22;15.52;;;5.03;;
83022;SDS011;72838;51.820;4.260;2023-10-13T02:23:29;12.57;;;4.75;;
83022;SDS011;72838;51.820;4.260;2023-10-13T02:25:55;12.77;;;4.68;;
83022;SDS011;72838;51.820;4.260;2023-10-13T02:28:50;14.82;;;4.90;;
83022;SDS011;72838;51.820;4.260;2023-10-13T02:31:17;13.77;;;4.53;;
83022;SDS011;72838;51.820;4.260;2023-10-13T02:33:45;12.38;;;4.78;;
83022;SDS011;72838;51.820;4.260;2023-10-13T02:36:11;16.55;;;5.40;;
83022;SDS011;72838;51.820;4.260;2023-10-13T02:38:37;12.20;;;4.90;;
83022;SDS011;72838;51.820;4.260;2023-10-13T02:41:18;13.52;;;4.68;;
83022;SDS011;72838;51.820;4.260;2023-10-13T02:43:54;11.93;;;4.68;;
83022;SDS011;72838;51.820;4.260;2023-10-13T02:46:20;11.65;;;4.70;;
83022;SDS011;72838;51.820;4.260;2023-10-13T02:48:55;12.73;;;4.65;;
83022;SDS011;72838;51.820;4.260;2023-10-13T02:51:22;8.18;;;3.45;;
83022;SDS011;72838;51.820;4.260;2023-10-13T02:53:56;9.05;;;3.03;;
83022;SDS011;72838;51.820;4.260;2023-10-13T02:56:28;10.93;;;3.60;;
83022;SDS011;72838;51.820;4.260;2023-10-13T02:58:55;9.90;;;3.45;;
83022;SDS011;72838;51.820;4.260;2023-10-13T03:01:30;10.63;;;3.55;;
83022;SDS011;72838;51.820;4.260;2023-10-13T03:03:59;8.07;;;3.42;;
83022;SDS011;72838;51.820;4.260;2023-10-13T03:06:28;13.18;;;4.88;;
83022;SDS011;72838;51.820;4.260;2023-10-13T03:09:09;15.02;;;5.43;;
83022;SDS011;72838;51.820;4.260;2023-10-13T03:11:39;18.38;;;6.53;;
83022;SDS011;72838;51.820;4.260;2023-10-13T03:14:12;18.27;;;6.30;;
83022;SDS011;72838;51.820;4.260;2023-10-13T03:16:49;22.02;;;8.18;;
83022;SDS011;72838;51.820;4.260;2023-10-13T03:19:31;25.45;;;8.73;;
83022;SDS011;72838;51.820;4.260;2023-10-13T03:22:02;21.70;;;9.50;;
83022;SDS011;72838;51.820;4.260;2023-10-13T03:24:36;23.35;;;9.07;;
83022;SDS011;72838;51.820;4.260;2023-10-13T03:27:02;23.80;;;9.07;;
83022;SDS011;72838;51.820;4.260;2023-10-13T03:29:37;24.08;;;10.55;;
83022;SDS011;72838;51.820;4.260;2023-10-13T03:32:07;24.98;;;10.60;;
83022;SDS011;72838;51.820;4.260;2023-10-13T03:34:37;21.45;;;9.18;;
83022;SDS011;72838;51.820;4.260;2023-10-13T03:37:07;24.95;;;9.10;;
83022;SDS011;72838;51.820;4.260;2023-10-13T03:39:51;20.10;;;9.32;;
83022;SDS011;72838;51.820;4.260;2023-10-13T03:42:20;21.02;;;8.90;;
83022;SDS011;72838;51.820;4.260;2023-10-13T03:44:46;21.00;;;8.40;;
83022;SDS011;72838;51.820;4.260;2023-10-13T03:47:12;26.13;;;9.27;;
83022;SDS011;72838;51.820;4.260;2023-10-13T03:49:52;19.23;;;8.75;;
83022;SDS011;72838;51.820;4.260;2023-10-13T03:52:38;24.27;;;10.00;;
83022;SDS011;72838;51.820;4.260;2023-10-13T03:55:03;20.63;;;9.77;;
83022;SDS011;72838;51.820;4.260;2023-10-13T03:57:30;21.25;;;9.80;;
83022;SDS011;72838;51.820;4.260;2023-10-13T03:59:58;18.63;;;8.77;;
83022;SDS011;72838;51.820;4.260;2023-10-13T04:02:30;19.73;;;9.52;;
83022;SDS011;72838;51.820;4.260;2023-10-13T04:04:56;18.02;;;8.73;;
83022;SDS011;72838;51.820;4.260;2023-10-13T04:07:32;18.17;;;9.50;;
83022;SDS011;72838;51.820;4.260;2023-10-13T04:09:57;16.17;;;9.20;;
83022;SDS011;72838;51.820;4.260;2023-10-13T04:12:41;16.90;;;9.60;;
83022;SDS011;72838;51.820;4.260;2023-10-13T04:15:25;15.45;;;9.25;;
83022;SDS011;72838;51.820;4.260;2023-10-13T04:18:01;14.90;;;9.70;;
83022;SDS011;72838;51.820;4.260;2023-10-13T04:20:38;14.90;;;9.65;;
83022;SDS011;72838;51.820;4.260;2023-10-13T04:23:04;17.90;;;9.70;;
83022;SDS011;72838;51.820;4.260;2023-10-13T04:25:51;17.58;;;8.40;;
83022;SDS011;72838;51.820;4.260;2023-10-13T04:28:16;18.27;;;8.90;;
83022;SDS011;72838;51.820;4.260;2023-10-13T04:31:02;12.95;;;7.82;;
83022;SDS011;72838;51.820;4.260;2023-10-13T04:33:37;13.73;;;7.85;;
83022;SDS011;72838;51.820;4.260;2023-10-13T04:36:16;13.27;;;6.57;;
83022;SDS011;72838;51.820;4.260;2023-10-13T04:38:48;12.70;;;5.60;;
83022;SDS011;72838;51.820;4.260;2023-10-13T04:44:19;8.18;;;3.75;;
83022;SDS011;72838;51.820;4.260;2023-10-13T04:47:03;10.57;;;3.90;;
83022;SDS011;72838;51.820;4.260;2023-10-13T04:49:32;6.78;;;3.97;;
83022;SDS011;72838;51.820;4.260;2023-10-13T04:52:00;10.77;;;4.28;;
83022;SDS011;72838;51.820;4.260;2023-10-13T04:57:23;10.07;;;3.72;;
83022;SDS011;72838;51.820;4.260;2023-10-13T05:00:08;9.18;;;3.17;;
83022;SDS011;72838;51.820;4.260;2023-10-13T05:02:46;9.55;;;4.13;;
83022;SDS011;72838;51.820;4.260;2023-10-13T05:05:27;13.68;;;3.92;;
83022;SDS011;72838;51.820;4.260;2023-10-13T05:08:11;8.88;;;3.45;;
83022;SDS011;72838;51.820;4.260;2023-10-13T05:10:56;10.55;;;3.53;;
83022;SDS011;72838;51.820;4.260;2023-10-13T05:13:40;13.88;;;4.22;;
83022;SDS011;72838;51.820;4.260;2023-10-13T05:16:24;7.63;;;4.75;;
83022;SDS011;72838;51.820;4.260;2023-10-13T05:19:08;12.25;;;4.60;;
83022;SDS011;72838;51.820;4.260;2023-10-13T05:21:52;13.77;;;4.65;;
83022;SDS011;72838;51.820;4.260;2023-10-13T05:24:36;12.68;;;4.03;;
83022;SDS011;72838;51.820;4.260;2023-10-13T05:27:20;10.18;;;3.97;;
83022;SDS011;72838;51.820;4.260;2023-10-13T05:30:04;7.47;;;3.90;;
83022;SDS011;72838;51.820;4.260;2023-10-13T05:32:49;8.85;;;3.97;;
83022;SDS011;72838;51.820;4.260;2023-10-13T05:35:36;12.95;;;4.07;;
83022;SDS011;72838;51.820;4.260;2023-10-13T05:41:04;9.38;;;3.83;;
83022;SDS011;72838;51.820;4.260;2023-10-13T05:43:49;9.23;;;4.00;;
83022;SDS011;72838;51.820;4.260;2023-10-13T05:46:34;11.00;;;4.00;;
83022;SDS011;72838;51.820;4.260;2023-10-13T05:49:02;14.05;;;4.43;;
83022;SDS011;72838;51.820;4.260;2023-10-13T05:51:41;10.25;;;4.70;;
83022;SDS011;72838;51.820;4.260;2023-10-13T05:54:07;11.25;;;5.00;;
83022;SDS011;72838;51.820;4.260;2023-10-13T05:56:38;14.32;;;6.18;;
83022;SDS011;72838;51.820;4.260;2023-10-13T05:59:22;16.83;;;6.03;;
83022;SDS011;72838;51.820;4.260;2023-10-13T06:02:06;13.05;;;6.72;;
83022;SDS011;72838;51.820;4.260;2023-10-13T06:04:50;13.98;;;7.72;;
83022;SDS011;72838;51.820;4.260;2023-10-13T06:07:34;16.83;;;9.00;;
83022;SDS011;72838;51.820;4.260;2023-10-13T06:10:18;16.48;;;9.02;;
83022;SDS011;72838;51.820;4.260;2023-10-13T06:13:02;17.77;;;10.38;;
83022;SDS011;72838;51.820;4.260;2023-10-13T06:15:46;22.20;;;10.45;;
83022;SDS011;72838;51.820;4.260;2023-10-13T06:18:30;20.10;;;10.98;;
83022;SDS011;72838;51.820;4.260;2023-10-13T06:21:14;16.80;;;9.88;;
83022;SDS011;72838;51.820;4.260;2023-10-13T06:23:58;19.45;;;9.40;;
83022;SDS011;72838;51.820;4.260;2023-10-13T06:26:42;18.30;;;8.45;;
83022;SDS011;72838;51.820;4.260;2023-10-13T06:29:26;15.85;;;7.15;;
83022;SDS011;72838;51.820;4.260;2023-10-13T06:31:51;15.55;;;7.75;;
83022;SDS011;72838;51.820;4.260;2023-10-13T06:34:17;16.05;;;7.35;;
83022;SDS011;72838;51.820;4.260;2023-10-13T06:36:46;14.45;;;6.68;;
83022;SDS011;72838;51.820;4.260;2023-10-13T06:39:12;13.50;;;6.68;;
83022;SDS011;72838;51.820;4.260;2023-10-13T06:41:56;18.33;;;7.03;;
83022;SDS011;72838;51.820;4.260;2023-10-13T06:44:21;13.00;;;6.70;;
83022;SDS011;72838;51.820;4.260;2023-10-13T06:46:49;10.85;;;6.20;;
83022;SDS011;72838;51.820;4.260;2023-10-13T06:49:15;15.95;;;6.38;;
83022;SDS011;72838;51.820;4.260;2023-10-13T06:51:43;16.85;;;6.15;;
83022;SDS011;72838;51.820;4.260;2023-10-13T06:54:11;16.63;;;7.20;;
83022;SDS011;72838;51.820;4.260;2023-10-13T06:56:45;15.57;;;6.32;;
83022;SDS011;72838;51.820;4.260;2023-10-13T06:59:11;13.82;;;6.95;;
83022;SDS011;72838;51.820;4.260;2023-10-13T07:01:41;15.70;;;6.32;;
83022;SDS011;72838;51.820;4.260;2023-10-13T07:04:08;16.83;;;6.35;;
83022;SDS011;72838;51.820;4.260;2023-10-13T07:06:41;15.95;;;6.97;;
83022;SDS011;72838;51.820;4.260;2023-10-13T07:09:13;16.33;;;6.75;;
83022;SDS011;72838;51.820;4.260;2023-10-13T07:11:58;14.77;;;6.63;;
83022;SDS011;72838;51.820;4.260;2023-10-13T07:14:26;16.83;;;6.35;;
83022;SDS011;72838;51.820;4.260;2023-10-13T07:16:56;12.65;;;6.45;;
83022;SDS011;72838;51.820;4.260;2023-10-13T07:19:26;15.93;;;5.68;;
83022;SDS011;72838;51.820;4.260;2023-10-13T07:21:55;14.25;;;6.38;;
83022;SDS011;72838;51.820;4.260;2023-10-13T07:24:27;11.73;;;5.80;;
83022;SDS011;72838;51.820;4.260;2023-10-13T07:27:05;17.42;;;6.57;;
83022;SDS011;72838;51.820;4.260;2023-10-13T07:29:31;13.18;;;5.43;;
83022;SDS011;72838;51.820;4.260;2023-10-13T07:32:00;15.07;;;5.95;;
83022;SDS011;72838;51.820;4.260;2023-10-13T07:34:37;15.98;;;5.40;;
83022;SDS011;72838;51.820;4.260;2023-10-13T07:37:04;12.15;;;5.32;;
83022;SDS011;72838;51.820;4.260;2023-10-13T07:39:33;16.30;;;5.28;;
83022;SDS011;72838;51.820;4.260;2023-10-13T07:41:59;10.45;;;4.90;;
83022;SDS011;72838;51.820;4.260;2023-10-13T07:44:44;15.30;;;5.30;;
83022;SDS011;72838;51.820;4.260;2023-10-13T07:47:13;14.05;;;4.88;;
83022;SDS011;72838;51.820;4.260;2023-10-13T07:49:40;13.52;;;4.78;;
83022;SDS011;72838;51.820;4.260;2023-10-13T07:52:10;16.42;;;5.47;;
83022;SDS011;72838;51.820;4.260;2023-10-13T07:54:46;14.77;;;5.22;;
83022;SDS011;72838;51.820;4.260;2023-10-13T07:57:21;9.82;;;4.32;;
83022;SDS011;72838;51.820;4.260;2023-10-13T07:59:53;13.50;;;4.80;;
83022;SDS011;72838;51.820;4.260;2023-10-13T08:02:31;15.43;;;4.97;;
83022;SDS011;72838;51.820;4.260;2023-10-13T08:05:15;14.40;;;5.10;;
83022;SDS011;72838;51.820;4.260;2023-10-13T08:07:54;12.50;;;5.03;;
83022;SDS011;72838;51.820;4.260;2023-10-13T08:10:21;17.00;;;5.03;;
83022;SDS011;72838;51.820;4.260;2023-10-13T08:12:54;15.45;;;4.60;;
83022;SDS011;72838;51.820;4.260;2023-10-13T08:15:22;13.95;;;4.80;;
83022;SDS011;72838;51.820;4.260;2023-10-13T08:17:57;13.63;;;4.50;;
83022;SDS011;72838;51.820;4.260;2023-10-13T08:20:24;14.77;;;4.68;;
83022;SDS011;72838;51.820;4.260;2023-10-13T08:22:55;10.95;;;5.07;;
83022;SDS011;72838;51.820;4.260;2023-10-13T08:25:38;11.65;;;4.25;;
83022;SDS011;72838;51.820;4.260;2023-10-13T08:31:03;14.95;;;4.53;;
83022;SDS011;72838;51.820;4.260;2023-10-13T08:33:39;15.60;;;4.53;;
83022;SDS011;72838;51.820;4.260;2023-10-13T08:36:11;16.77;;;4.78;;
83022;SDS011;72838;51.820;4.260;2023-10-13T08:38:52;12.65;;;4.10;;
83022;SDS011;72838;51.820;4.260;2023-10-13T08:41:20;13.95;;;4.50;;
83022;SDS011;72838;51.820;4.260;2023-10-13T08:43:45;13.18;;;4.28;;
83022;SDS011;72838;51.820;4.260;2023-10-13T08:46:18;9.20;;;3.72;;
83022;SDS011;72838;51.820;4.260;2023-10-13T08:48:52;12.95;;;4.18;;
83022;SDS011;72838;51.820;4.260;2023-10-13T08:51:30;14.43;;;4.10;;
83022;SDS011;72838;51.820;4.260;2023-10-13T08:54:09;14.55;;;5.05;;
83022;SDS011;72838;51.820;4.260;2023-10-13T08:56:48;12.95;;;4.53;;
83022;SDS011;72838;51.820;4.260;2023-10-13T08:59:21;12.75;;;4.00;;
83022;SDS011;72838;51.820;4.260;2023-10-13T09:01:48;14.13;;;4.25;;
83022;SDS011;72838;51.820;4.260;2023-10-13T09:04:17;13.48;;;4.20;;
83022;SDS011;72838;51.820;4.260;2023-10-13T09:06:44;11.63;;;4.35;;
83022;SDS011;72838;51.820;4.260;2023-10-13T09:09:22;9.90;;;4.07;;
83022;SDS011;72838;51.820;4.260;2023-10-13T09:12:14;11.57;;;3.85;;
83022;SDS011;72838;51.820;4.260;2023-10-13T09:15:05;13.02;;;4.03;;
83022;SDS011;72838;51.820;4.260;2023-10-13T09:17:41;12.80;;;3.92;;
83022;SDS011;72838;51.820;4.260;2023-10-13T09:20:28;9.77;;;4.45;;
83022;SDS011;72838;51.820;4.260;2023-10-13T09:23:13;13.38;;;3.90;;
83022;SDS011;72838;51.820;4.260;2023-10-13T09:26:10;14.93;;;3.95;;
83022;SDS011;72838;51.820;4.260;2023-10-13T09:28:37;17.58;;;4.22;;
83022;SDS011;72838;51.820;4.260;2023-10-13T09:31:02;13.98;;;4.50;;
83022;SDS011;72838;51.820;4.260;2023-10-13T09:33:32;13.75;;;4.10;;
83022;SDS011;72838;51.820;4.260;2023-10-13T09:36:04;16.95;;;4.72;;
83022;SDS011;72838;51.820;4.260;2023-10-13T09:38:35;12.05;;;3.95;;
83022;SDS011;72838;51.820;4.260;2023-10-13T09:41:06;10.93;;;4.18;;
83022;SDS011;72838;51.820;4.260;2023-10-13T09:43:55;14.48;;;4.38;;
83022;SDS011;72838;51.820;4.260;2023-10-13T09:46:23;13.65;;;3.80;;
83022;SDS011;72838;51.820;4.260;2023-10-13T09:49:05;13.00;;;4.45;;
83022;SDS011;72838;51.820;4.260;2023-10-13T09:51:48;10.20;;;3.95;;
83022;SDS011;72838;51.820;4.260;2023-10-13T09:54:17;14.15;;;4.55;;
83022;SDS011;72838;51.820;4.260;2023-10-13T09:56:53;11.20;;;4.00;;
83022;SDS011;72838;51.820;4.260;2023-10-13T09:59:27;15.48;;;4.50;;
83022;SDS011;72838;51.820;4.260;2023-10-13T10:02:01;16.35;;;4.90;;
83022;SDS011;72838;51.820;4.260;2023-10-13T10:04:34;12.52;;;4.75;;
83022;SDS011;72838;51.820;4.260;2023-10-13T10:07:23;15.32;;;4.72;;
83022;SDS011;72838;51.820;4.260;2023-10-13T10:09:55;12.55;;;4.88;;
83022;SDS011;72838;51.820;4.260;2023-10-13T10:18:01;14.00;;;4.63;;
83022;SDS011;72838;51.820;4.260;2023-10-13T10:20:33;18.33;;;4.40;;
83022;SDS011;72838;51.820;4.260;2023-10-13T10:23:10;14.07;;;5.25;;
83022;SDS011;72838;51.820;4.260;2023-10-13T10:25:47;15.80;;;4.50;;
83022;SDS011;72838;51.820;4.260;2023-10-13T10:28:16;14.80;;;5.65;;
83022;SDS011;72838;51.820;4.260;2023-10-13T10:30:42;16.60;;;4.90;;
83022;SDS011;72838;51.820;4.260;2023-10-13T10:33:09;20.02;;;5.28;;
83022;SDS011;72838;51.820;4.260;2023-10-13T10:35:41;13.50;;;5.25;;
83022;SDS011;72838;51.820;4.260;2023-10-13T10:38:11;14.38;;;4.80;;
83022;SDS011;72838;51.820;4.260;2023-10-13T10:41:04;11.60;;;5.35;;
83022;SDS011;72838;51.820;4.260;2023-10-13T10:46:13;10.35;;;4.80;;
83022;SDS011;72838;51.820;4.260;2023-10-13T10:48:52;12.05;;;4.38;;
83022;SDS011;72838;51.820;4.260;2023-10-13T10:51:27;15.90;;;5.18;;
83022;SDS011;72838;51.820;4.260;2023-10-13T10:53:57;17.05;;;5.20;;
83022;SDS011;72838;51.820;4.260;2023-10-13T10:56:36;15.10;;;5.00;;
83022;SDS011;72838;51.820;4.260;2023-10-13T10:59:05;13.60;;;4.70;;
83022;SDS011;72838;51.820;4.260;2023-10-13T11:01:33;13.32;;;4.65;;
83022;SDS011;72838;51.820;4.260;2023-10-13T11:04:12;12.45;;;4.05;;
83022;SDS011;72838;51.820;4.260;2023-10-13T11:06:52;14.10;;;4.68;;
83022;SDS011;72838;51.820;4.260;2023-10-13T11:09:29;21.92;;;5.30;;
83022;SDS011;72838;51.820;4.260;2023-10-13T11:11:56;17.42;;;4.60;;
83022;SDS011;72838;51.820;4.260;2023-10-13T11:14:59;13.95;;;5.00;;
83022;SDS011;72838;51.820;4.260;2023-10-13T11:17:51;16.42;;;5.00;;
83022;SDS011;72838;51.820;4.260;2023-10-13T11:20:20;15.65;;;5.22;;
83022;SDS011;72838;51.820;4.260;2023-10-13T11:23:10;16.67;;;5.07;;
83022;SDS011;72838;51.820;4.260;2023-10-13T11:25:36;15.68;;;4.55;;
83022;SDS011;72838;51.820;4.260;2023-10-13T11:28:15;14.80;;;4.97;;
83022;SDS011;72838;51.820;4.260;2023-10-13T11:30:45;15.77;;;5.18;;
83022;SDS011;72838;51.820;4.260;2023-10-13T11:33:15;13.23;;;4.72;;
83022;SDS011;72838;51.820;4.260;2023-10-13T11:35:48;12.85;;;4.30;;
83022;SDS011;72838;51.820;4.260;2023-10-13T11:38:30;15.85;;;4.93;;
83022;SDS011;72838;51.820;4.260;2023-10-13T11:41:15;14.40;;;4.88;;
83022;SDS011;72838;51.820;4.260;2023-10-13T11:46:17;16.27;;;4.70;;
83022;SDS011;72838;51.820;4.260;2023-10-13T11:49:05;17.10;;;4.90;;
83022;SDS011;72838;51.820;4.260;2023-10-13T11:51:43;14.57;;;4.60;;
83022;SDS011;72838;51.820;4.260;2023-10-13T11:54:11;11.90;;;4.38;;
83022;SDS011;72838;51.820;4.260;2023-10-13T11:56:47;18.23;;;5.85;;
83022;SDS011;72838;51.820;4.260;2023-10-13T11:59:13;11.55;;;4.78;;
83022;SDS011;72838;51.820;4.260;2023-10-13T12:01:43;10.95;;;4.65;;
83022;SDS011;72838;51.820;4.260;2023-10-13T12:04:31;17.40;;;5.00;;
83022;SDS011;72838;51.820;4.260;2023-10-13T12:07:15;12.32;;;4.60;;
83022;SDS011;72838;51.820;4.260;2023-10-13T12:09:49;15.70;;;4.72;;
83022;SDS011;72838;51.820;4.260;2023-10-13T12:12:21;12.80;;;4.97;;
83022;SDS011;72838;51.820;4.260;2023-10-13T12:14:50;14.00;;;4.72;;
83022;SDS011;72838;51.820;4.260;2023-10-13T12:20:04;12.77;;;4.72;;
83022;SDS011;72838;51.820;4.260;2023-10-13T12:22:34;14.73;;;4.68;;
83022;SDS011;72838;51.820;4.260;2023-10-13T12:25:08;13.50;;;5.00;;
83022;SDS011;72838;51.820;4.260;2023-10-13T12:27:53;14.25;;;5.20;;
83022;SDS011;72838;51.820;4.260;2023-10-13T12:30:45;13.80;;;5.32;;
83022;SDS011;72838;51.820;4.260;2023-10-13T12:33:14;13.13;;;4.88;;
83022;SDS011;72838;51.820;4.260;2023-10-13T12:35:42;15.68;;;5.03;;
83022;SDS011;72838;51.820;4.260;2023-10-13T12:38:28;22.70;;;5.30;;
83022;SDS011;72838;51.820;4.260;2023-10-13T12:41:22;16.95;;;5.55;;
83022;SDS011;72838;51.820;4.260;2023-10-13T12:44:06;17.13;;;5.25;;
83022;SDS011;72838;51.820;4.260;2023-10-13T12:46:50;19.80;;;7.07;;
83022;SDS011;72838;51.820;4.260;2023-10-13T12:49:35;13.40;;;5.20;;
83022;SDS011;72838;51.820;4.260;2023-10-13T12:52:07;16.63;;;5.50;;
83022;SDS011;72838;51.820;4.260;2023-10-13T12:54:41;14.88;;;5.50;;
83022;SDS011;72838;51.820;4.260;2023-10-13T12:57:24;17.80;;;5.80;;
83022;SDS011;72838;51.820;4.260;2023-10-13T12:59:53;11.57;;;5.43;;
83022;SDS011;72838;51.820;4.260;2023-10-13T13:02:20;16.98;;;5.25;;
83022;SDS011;72838;51.820;4.260;2023-10-13T13:04:45;16.00;;;5.13;;
83022;SDS011;72838;51.820;4.260;2023-10-13T13:07:16;16.23;;;5.40;;
83022;SDS011;72838;51.820;4.260;2023-10-13T13:09:41;17.10;;;5.47;;
83022;SDS011;72838;51.820;4.260;2023-10-13T13:12:06;18.55;;;6.20;;
83022;SDS011;72838;51.820;4.260;2023-10-13T13:14:32;12.15;;;5.28;;
83022;SDS011;72838;51.820;4.260;2023-10-13T13:16:59;11.63;;;5.45;;
83022;SDS011;72838;51.820;4.260;2023-10-13T13:19:35;15.73;;;5.78;;
83022;SDS011;72838;51.820;4.260;2023-10-13T13:22:04;12.52;;;5.05;;
83022;SDS011;72838;51.820;4.260;2023-10-13T13:24:30;19.20;;;5.80;;
83022;SDS011;72838;51.820;4.260;2023-10-13T13:26:56;16.00;;;5.43;;
83022;SDS011;72838;51.820;4.260;2023-10-13T13:29:28;19.38;;;5.63;;
83022;SDS011;72838;51.820;4.260;2023-10-13T13:31:54;14.43;;;5.80;;
83022;SDS011;72838;51.820;4.260;2023-10-13T13:34:20;16.75;;;6.82;;
83022;SDS011;72838;51.820;4.260;2023-10-13T13:36:46;18.08;;;5.47;;
83022;SDS011;72838;51.820;4.260;2023-10-13T13:39:17;13.63;;;5.90;;
83022;SDS011;72838;51.820;4.260;2023-10-13T13:41:53;13.85;;;5.75;;
83022;SDS011;72838;51.820;4.260;2023-10-13T13:44:21;16.88;;;5.30;;
83022;SDS011;72838;51.820;4.260;2023-10-13T13:47:00;14.70;;;5.30;;
83022;SDS011;72838;51.820;4.260;2023-10-13T13:49:30;17.63;;;4.60;;
83022;SDS011;72838;51.820;4.260;2023-10-13T13:52:05;16.05;;;4.45;;
83022;SDS011;72838;51.820;4.260;2023-10-13T13:54:30;14.95;;;4.57;;
83022;SDS011;72838;51.820;4.260;2023-10-13T13:56:58;14.27;;;3.15;;
83022;SDS011;72838;51.820;4.260;2023-10-13T13:59:24;16.92;;;3.38;;
83022;SDS011;72838;51.820;4.260;2023-10-13T14:01:49;13.25;;;3.92;;
83022;SDS011;72838;51.820;4.260;2023-10-13T14:04:17;20.20;;;4.80;;
83022;SDS011;72838;51.820;4.260;2023-10-13T14:06:46;18.67;;;4.20;;
83022;SDS011;72838;51.820;4.260;2023-10-13T14:09:12;24.77;;;4.72;;
83022;SDS011;72838;51.820;4.260;2023-10-13T14:11:41;26.67;;;6.60;;
83022;SDS011;72838;51.820;4.260;2023-10-13T14:14:42;31.83;;;6.68;;
83022;SDS011;72838;51.820;4.260;2023-10-13T14:17:28;27.85;;;8.13;;
83022;SDS011;72838;51.820;4.260;2023-10-13T14:20:00;26.02;;;7.40;;
83022;SDS011;72838;51.820;4.260;2023-10-13T14:22:34;31.10;;;8.75;;
83022;SDS011;72838;51.820;4.260;2023-10-13T14:25:02;34.28;;;11.38;;
83022;SDS011;72838;51.820;4.260;2023-10-13T14:27:35;25.52;;;6.50;;
83022;SDS011;72838;51.820;4.260;2023-10-13T14:30:03;26.65;;;7.93;;
83022;SDS011;72838;51.820;4.260;2023-10-13T14:32:29;33.25;;;8.35;;
83022;SDS011;72838;51.820;4.260;2023-10-13T14:34:54;36.38;;;10.35;;
83022;SDS011;72838;51.820;4.260;2023-10-13T14:37:21;48.97;;;16.63;;
83022;SDS011;72838;51.820;4.260;2023-10-13T14:39:52;34.95;;;8.77;;
83022;SDS011;72838;51.820;4.260;2023-10-13T14:42:21;45.95;;;14.75;;
83022;SDS011;72838;51.820;4.260;2023-10-13T14:44:48;40.42;;;13.07;;
83022;SDS011;72838;51.820;4.260;2023-10-13T14:47:20;39.95;;;14.20;;
83022;SDS011;72838;51.820;4.260;2023-10-13T14:49:49;38.17;;;10.40;;
83022;SDS011;72838;51.820;4.260;2023-10-13T14:54:50;39.88;;;13.68;;
83022;SDS011;72838;51.820;4.260;2023-10-13T14:57:20;35.38;;;10.45;;
83022;SDS011;72838;51.820;4.260;2023-10-13T14:59:50;42.60;;;14.95;;
83022;SDS011;72838;51.820;4.260;2023-10-13T15:02:16;40.25;;;17.77;;
83022;SDS011;72838;51.820;4.260;2023-10-13T15:04:42;36.85;;;16.92;;
83022;SDS011;72838;51.820;4.260;2023-10-13T15:07:07;42.22;;;15.23;;
83022;SDS011;72838;51.820;4.260;2023-10-13T15:09:33;26.48;;;10.95;;
83022;SDS011;72838;51.820;4.260;2023-10-13T15:11:58;31.00;;;8.57;;
83022;SDS011;72838;51.820;4.260;2023-10-13T15:14:23;41.47;;;12.13;;
83022;SDS011;72838;51.820;4.260;2023-10-13T15:16:49;29.77;;;9.55;;
83022;SDS011;72838;51.820;4.260;2023-10-13T15:19:15;30.10;;;8.70;;
83022;SDS011;72838;51.820;4.260;2023-10-13T15:21:43;21.00;;;7.50;;
83022;SDS011;72838;51.820;4.260;2023-10-13T15:24:14;30.38;;;7.90;;
83022;SDS011;72838;51.820;4.260;2023-10-13T15:26:39;25.40;;;6.97;;
83022;SDS011;72838;51.820;4.260;2023-10-13T15:29:10;27.05;;;7.03;;
83022;SDS011;72838;51.820;4.260;2023-10-13T15:31:50;21.02;;;6.97;;
83022;SDS011;72838;51.820;4.260;2023-10-13T15:34:26;21.30;;;6.88;;
83022;SDS011;72838;51.820;4.260;2023-10-13T15:36:52;22.00;;;6.78;;
83022;SDS011;72838;51.820;4.260;2023-10-13T15:39:20;23.15;;;6.85;;
83022;SDS011;72838;51.820;4.260;2023-10-13T15:41:51;61.78;;;21.83;;